createdAt,value
2022-08-08T00:02:58.801Z,3.30
2022-08-08T00:08:27.568Z,3.23
2022-08-08T00:14:16.880Z,3.53
2022-08-08T00:19:51.510Z,3.97
2022-08-08T00:25:20.636Z,4.40
2022-08-08T00:31:00.559Z,4.20
2022-08-08T00:36:35.128Z,4.60
2022-08-08T00:42:36.761Z,4.33
2022-08-08T00:48:55.146Z,4.30
2022-08-08T00:55:17.515Z,4.20
2022-08-08T01:00:56.300Z,4.60
2022-08-08T01:06:50.904Z,4.70
2022-08-08T01:12:50.906Z,4.23
2022-08-08T01:18:52.610Z,4.40
2022-08-08T01:25:05.078Z,5.00
2022-08-08T01:32:13.343Z,4.27
2022-08-08T01:37:56.291Z,5.17
2022-08-08T01:43:45.879Z,4.47
2022-08-08T01:49:22.925Z,4.53
2022-08-08T01:55:26.798Z,5.10
2022-08-08T02:01:16.043Z,5.27
2022-08-08T02:06:57.154Z,4.70
2022-08-08T02:12:30.779Z,5.50
2022-08-08T02:18:03.032Z,5.30
2022-08-08T02:23:35.355Z,5.00
2022-08-08T02:29:19.055Z,6.10
2022-08-08T02:35:07.766Z,6.57
2022-08-08T02:40:45.195Z,5.33
2022-08-08T02:46:31.496Z,5.90
2022-08-08T02:52:34.872Z,6.30
2022-08-08T02:58:35.043Z,5.50
2022-08-08T03:05:05.048Z,6.77
2022-08-08T03:10:57.467Z,6.93
2022-08-08T03:16:37.242Z,7.23
2022-08-08T03:22:01.680Z,7.83
2022-08-08T03:27:35.793Z,8.10
2022-08-08T03:33:54.770Z,7.50
2022-08-08T03:39:15.115Z,7.57
2022-08-08T03:44:40.783Z,8.00
2022-08-08T03:50:19.690Z,7.30
2022-08-08T03:55:57.208Z,7.43
2022-08-08T04:01:23.961Z,7.60
2022-08-08T04:06:57.277Z,8.10
2022-08-08T04:12:29.144Z,7.60
2022-08-08T04:17:59.204Z,8.27
2022-08-08T04:23:23.196Z,8.53
2022-08-08T04:28:47.923Z,7.50
2022-08-08T04:34:20.103Z,8.30
2022-08-08T04:40:03.341Z,7.30
2022-08-08T04:45:29.724Z,7.60
2022-08-08T04:50:56.809Z,7.57
2022-08-08T04:56:25.735Z,6.77
2022-08-08T05:01:48.979Z,6.97
2022-08-08T05:07:15.865Z,7.23
2022-08-08T05:12:59.771Z,7.50
2022-08-08T05:18:22.608Z,7.60
2022-08-08T05:24:04.141Z,8.00
2022-08-08T05:29:29.315Z,7.83
2022-08-08T05:34:54.381Z,7.13
2022-08-08T05:40:28.332Z,7.17
2022-08-08T05:46:03.616Z,9.10
2022-08-08T05:51:48.057Z,7.80
2022-08-08T05:57:57.389Z,7.53
2022-08-08T06:03:17.702Z,6.93
2022-08-08T06:08:55.104Z,7.23
2022-08-08T06:14:26.312Z,6.80
2022-08-08T06:19:50.461Z,7.03
2022-08-08T06:25:13.642Z,6.00
2022-08-08T06:30:40.347Z,6.77
2022-08-08T06:36:09.781Z,6.27
2022-08-08T06:41:35.151Z,7.03
2022-08-08T06:47:01.699Z,6.57
2022-08-08T06:52:27.868Z,6.47
2022-08-08T06:57:56.012Z,6.50
2022-08-08T07:03:52.342Z,6.83
2022-08-08T07:09:20.839Z,5.90
2022-08-08T07:14:54.008Z,6.27
2022-08-08T07:20:28.220Z,6.63
2022-08-08T07:25:55.427Z,7.20
2022-08-08T07:31:22.001Z,5.60
2022-08-08T07:36:50.772Z,6.10
2022-08-08T07:42:18.875Z,5.80
2022-08-08T07:47:49.036Z,5.97
2022-08-08T07:53:52.257Z,5.40
2022-08-08T07:59:14.402Z,6.27
2022-08-08T08:04:46.765Z,5.73
2022-08-08T08:10:17.985Z,4.80
2022-08-08T08:16:01.376Z,4.50
2022-08-08T08:21:44.907Z,5.80
2022-08-08T08:27:30.208Z,5.40
2022-08-08T08:32:54.524Z,5.10
2022-08-08T08:38:21.541Z,4.27
2022-08-08T08:44:13.439Z,3.90
2022-08-08T08:49:42.968Z,4.63
2022-08-08T08:55:10.206Z,4.33
2022-08-08T09:01:05.292Z,4.37
2022-08-08T09:06:33.276Z,3.43
2022-08-08T09:12:06.463Z,3.73
2022-08-08T09:17:41.664Z,3.40
2022-08-08T09:23:17.746Z,5.57
2022-08-08T09:28:47.798Z,4.00
2022-08-08T09:34:32.899Z,4.50
2022-08-08T09:40:03.789Z,3.70
2022-08-08T09:45:54.935Z,7.43
2022-08-08T09:51:25.705Z,4.20
2022-08-08T09:56:55.256Z,5.20
2022-08-08T10:02:24.711Z,4.13
2022-08-08T10:07:59.721Z,3.60
2022-08-08T10:13:29.993Z,3.93
2022-08-08T10:19:04.297Z,3.20
2022-08-08T10:24:34.904Z,3.53
2022-08-08T10:30:01.177Z,3.50
2022-08-08T10:36:09.339Z,5.43
2022-08-08T10:41:20.012Z,3.90
2022-08-08T10:46:43.701Z,3.80
2022-08-08T10:52:11.387Z,3.57
2022-08-08T10:57:49.967Z,3.90
2022-08-08T11:03:16.434Z,4.10
2022-08-08T11:08:42.888Z,3.47
2022-08-08T11:14:16.462Z,3.80
2022-08-08T11:19:40.954Z,2.90
2022-08-08T11:25:14.059Z,3.20
2022-08-08T11:30:40.847Z,2.93
2022-08-08T11:36:14.838Z,2.90
2022-08-08T11:41:38.601Z,3.20
2022-08-08T11:47:13.012Z,3.67
2022-08-08T11:52:47.267Z,3.13
2022-08-08T11:58:14.652Z,3.13
2022-08-08T12:03:49.319Z,2.87
2022-08-08T12:09:17.059Z,3.30
2022-08-08T12:14:42.011Z,2.60
2022-08-08T12:20:19.028Z,2.00
2022-08-08T12:25:44.967Z,2.27
2022-08-08T12:31:15.783Z,2.63
2022-08-08T12:36:46.505Z,2.50
2022-08-08T12:42:20.984Z,2.30
2022-08-08T12:48:04.891Z,2.27
2022-08-08T12:53:37.727Z,1.73
2022-08-08T12:59:19.082Z,2.00
2022-08-08T13:04:52.076Z,2.13
2022-08-08T13:10:56.383Z,2.03
2022-08-08T13:16:30.359Z,2.13
2022-08-08T13:40:41.037Z,1.70
2022-08-08T13:46:26.459Z,1.67
2022-08-08T13:58:08.863Z,1.70
2022-08-08T14:03:58.027Z,1.63
2022-08-08T14:15:31.249Z,1.80
2022-08-08T14:21:12.760Z,1.80
2022-08-08T14:26:46.387Z,1.60
2022-08-08T14:32:16.047Z,1.30
2022-08-08T14:37:57.193Z,1.40
2022-08-08T14:44:02.079Z,1.67
2022-08-08T14:49:32.107Z,1.50
2022-08-08T14:54:58.942Z,1.30
2022-08-08T15:00:22.739Z,1.53
2022-08-08T15:05:53.878Z,3.43
2022-08-08T15:11:24.123Z,1.10
2022-08-08T15:22:25.954Z,1.87
2022-08-08T15:28:04.139Z,1.43
2022-08-08T15:33:38.137Z,1.60
2022-08-08T15:39:22.467Z,1.20
2022-08-08T15:44:51.463Z,1.40
2022-08-08T15:50:20.610Z,1.20
2022-08-08T15:55:44.431Z,1.30
2022-08-08T16:01:11.931Z,1.70
2022-08-08T16:06:36.385Z,1.57
2022-08-08T16:13:10.359Z,7.47
2022-08-08T16:18:06.218Z,1.60
2022-08-08T16:23:32.394Z,21.93
2022-08-08T16:28:56.174Z,2.20
2022-08-08T16:34:24.833Z,1.80
2022-08-08T16:40:02.589Z,1.90
2022-08-08T16:46:36.418Z,1.70
2022-08-08T16:55:03.230Z,1.40
2022-08-08T16:57:03.962Z,1.97
2022-08-08T17:02:45.056Z,1.87
2022-08-08T17:08:10.151Z,1.73
2022-08-08T17:13:49.773Z,1.67
2022-08-08T17:19:13.845Z,2.90
2022-08-08T17:24:42.449Z,1.30
2022-08-08T17:30:08.217Z,2.73
2022-08-08T17:35:55.138Z,1.70
2022-08-08T17:41:17.408Z,1.40
2022-08-08T17:46:49.374Z,1.73
2022-08-08T17:52:14.415Z,1.27
2022-08-08T17:57:40.117Z,1.57
2022-08-08T18:03:08.904Z,1.60
2022-08-08T18:08:41.101Z,1.50
2022-08-08T18:14:21.894Z,4.80
2022-08-08T18:37:09.673Z,4.80
2022-08-08T18:42:33.476Z,2.60
2022-08-08T18:47:59.555Z,1.50
2022-08-08T18:53:23.540Z,1.40
2022-08-08T19:10:57.178Z,1.50
2022-08-08T19:16:21.407Z,1.77
2022-08-08T19:21:49.762Z,6.47
2022-08-08T19:27:14.931Z,1.67
2022-08-08T19:32:38.900Z,1.43
2022-08-08T19:38:05.610Z,1.60
2022-08-08T19:49:07.710Z,1.30
2022-08-08T19:54:59.558Z,1.50
2022-08-08T20:00:32.586Z,1.37
2022-08-08T20:06:13.967Z,1.57
2022-08-08T20:11:43.094Z,1.73
2022-08-08T20:17:06.438Z,1.50
2022-08-08T20:22:33.433Z,1.57
2022-08-08T20:28:06.413Z,1.77
2022-08-08T20:34:02.024Z,1.80
2022-08-08T20:39:15.105Z,1.60
2022-08-08T20:44:40.513Z,1.57
2022-08-08T20:50:04.066Z,3.23
2022-08-08T20:55:30.824Z,1.63
2022-08-08T21:01:07.118Z,1.60
2022-08-08T21:06:53.033Z,1.67
2022-08-08T21:12:17.314Z,1.50
2022-08-08T21:17:56.155Z,1.90
2022-08-08T21:23:25.049Z,1.70
2022-08-08T21:29:03.577Z,1.50
2022-08-08T21:34:33.092Z,1.60
2022-08-08T21:39:57.023Z,1.60
2022-08-08T21:45:44.671Z,2.00
2022-08-08T21:51:09.378Z,1.67
2022-08-08T21:56:42.223Z,1.70
2022-08-08T22:02:06.826Z,2.07
2022-08-08T22:07:40.525Z,1.70
2022-08-08T22:13:18.767Z,1.63
2022-08-08T22:18:48.200Z,1.90
2022-08-08T22:24:28.007Z,1.70
2022-08-08T22:30:06.256Z,1.63
2022-08-08T22:36:04.656Z,1.83
2022-08-08T22:41:35.360Z,2.40
2022-08-08T22:47:17.993Z,1.80
2022-08-08T22:52:58.790Z,1.87
2022-08-08T22:58:27.464Z,1.90
2022-08-08T23:03:54.497Z,2.40
2022-08-08T23:09:18.472Z,2.43
2022-08-08T23:14:53.462Z,2.00
2022-08-08T23:20:27.300Z,2.10
2022-08-08T23:25:50.880Z,2.20
2022-08-08T23:31:16.821Z,1.57
2022-08-08T23:36:40.991Z,2.00
2022-08-08T23:42:08.201Z,2.43
2022-08-08T23:49:03.891Z,1.97
2022-08-08T23:53:30.808Z,2.40
2022-08-08T23:59:02.180Z,2.47
